sensor_id;sensor_type;location;lat;lon;timestamp;pressure;altitude;pressure_sealevel;temperature;humidity
3122;BME280;1571;52.524;14.104;2023-04-23T00:02:06;100213.13;;;11.75;72.20
3122;BME280;1571;52.524;14.104;2023-04-23T00:04:36;100225.09;;;11.70;73.00
3122;BME280;1571;52.524;14.104;2023-04-23T00:07:05;100208.44;;;11.79;72.95
3122;BME280;1571;52.524;14.104;2023-04-23T00:09:37;100210.16;;;11.80;72.72
3122;BME280;1571;52.524;14.104;2023-04-23T00:12:06;100210.69;;;11.61;73.25
3122;BME280;1571;52.524;14.104;2023-04-23T00:14:35;100203.19;;;11.66;74.11
3122;BME280;1571;52.524;14.104;2023-04-23T00:17:03;100204.13;;;11.54;73.84
3122;BME280;1571;52.524;14.104;2023-04-23T00:19:32;100198.66;;;11.44;73.92
3122;BME280;1571;52.524;14.104;2023-04-23T00:22:00;100196.75;;;11.46;73.63
3122;BME280;1571;52.524;14.104;2023-04-23T00:24:29;100176.31;;;11.46;73.19
3122;BME280;1571;52.524;14.104;2023-04-23T00:26:59;100185.84;;;11.38;73.46
3122;BME280;1571;52.524;14.104;2023-04-23T00:29:27;100185.50;;;11.42;73.37
3122;BME280;1571;52.524;14.104;2023-04-23T00:31:55;100170.53;;;11.53;72.51
3122;BME280;1571;52.524;14.104;2023-04-23T00:34:24;100164.75;;;11.59;72.23
3122;BME280;1571;52.524;14.104;2023-04-23T00:36:53;100162.34;;;11.56;72.67
3122;BME280;1571;52.524;14.104;2023-04-23T00:39:21;100161.16;;;11.60;72.21
3122;BME280;1571;52.524;14.104;2023-04-23T00:41:49;100154.59;;;11.64;72.07
3122;BME280;1571;52.524;14.104;2023-04-23T00:44:19;100149.50;;;11.50;72.50
3122;BME280;1571;52.524;14.104;2023-04-23T00:46:48;100147.84;;;11.60;71.81
3122;BME280;1571;52.524;14.104;2023-04-23T00:49:17;100144.72;;;11.66;71.32
3122;BME280;1571;52.524;14.104;2023-04-23T00:51:47;100140.97;;;11.57;71.42
3122;BME280;1571;52.524;14.104;2023-04-23T00:54:16;100148.59;;;11.62;71.14
3122;BME280;1571;52.524;14.104;2023-04-23T00:56:44;100139.16;;;11.69;70.88
3122;BME280;1571;52.524;14.104;2023-04-23T00:59:12;100150.06;;;11.77;70.44
3122;BME280;1571;52.524;14.104;2023-04-23T01:01:42;100150.56;;;11.82;70.24
3122;BME280;1571;52.524;14.104;2023-04-23T01:04:12;100149.09;;;11.78;69.90
3122;BME280;1571;52.524;14.104;2023-04-23T01:06:42;100151.03;;;11.76;70.04
3122;BME280;1571;52.524;14.104;2023-04-23T01:09:13;100152.19;;;11.61;70.30
3122;BME280;1571;52.524;14.104;2023-04-23T01:11:43;100157.50;;;11.61;70.87
3122;BME280;1571;52.524;14.104;2023-04-23T01:14:12;100153.91;;;11.62;70.69
3122;BME280;1571;52.524;14.104;2023-04-23T01:16:42;100151.25;;;11.62;70.80
3122;BME280;1571;52.524;14.104;2023-04-23T01:19:10;100146.50;;;11.54;70.72
3122;BME280;1571;52.524;14.104;2023-04-23T01:25:39;100146.66;;;11.75;70.35
3122;BME280;1571;52.524;14.104;2023-04-23T01:28:08;100150.31;;;11.85;69.72
3122;BME280;1571;52.524;14.104;2023-04-23T01:30:37;100147.19;;;11.80;70.04
3122;BME280;1571;52.524;14.104;2023-04-23T01:33:05;100146.66;;;11.75;69.76
3122;BME280;1571;52.524;14.104;2023-04-23T01:35:34;100146.94;;;11.83;69.75
3122;BME280;1571;52.524;14.104;2023-04-23T01:38:03;100141.84;;;11.69;70.15
3122;BME280;1571;52.524;14.104;2023-04-23T01:40:34;100149.91;;;11.67;70.46
3122;BME280;1571;52.524;14.104;2023-04-23T01:43:05;100142.69;;;11.81;69.70
3122;BME280;1571;52.524;14.104;2023-04-23T01:45:33;100143.78;;;11.78;70.35
3122;BME280;1571;52.524;14.104;2023-04-23T01:48:02;100139.91;;;11.71;70.20
3122;BME280;1571;52.524;14.104;2023-04-23T01:50:30;100142.56;;;11.71;70.46
3122;BME280;1571;52.524;14.104;2023-04-23T01:52:58;100144.25;;;11.72;70.47
3122;BME280;1571;52.524;14.104;2023-04-23T01:55:27;100137.97;;;11.62;70.87
3122;BME280;1571;52.524;14.104;2023-04-23T01:57:56;100143.72;;;11.56;71.27
3122;BME280;1571;52.524;14.104;2023-04-23T02:00:25;100147.97;;;11.58;71.22
3122;BME280;1571;52.524;14.104;2023-04-23T02:02:54;100153.59;;;11.78;70.77
3122;BME280;1571;52.524;14.104;2023-04-23T02:05:23;100144.97;;;11.74;70.82
3122;BME280;1571;52.524;14.104;2023-04-23T02:07:52;100148.59;;;11.62;71.45
3122;BME280;1571;52.524;14.104;2023-04-23T02:10:20;100140.38;;;11.65;72.03
3122;BME280;1571;52.524;14.104;2023-04-23T02:12:48;100144.31;;;11.59;72.14
3122;BME280;1571;52.524;14.104;2023-04-23T02:15:17;100147.97;;;11.58;72.23
3122;BME280;1571;52.524;14.104;2023-04-23T02:17:47;100143.50;;;11.59;72.65
3122;BME280;1571;52.524;14.104;2023-04-23T02:20:17;100141.19;;;11.54;72.96
3122;BME280;1571;52.524;14.104;2023-04-23T02:22:46;100135.88;;;11.54;72.62
3122;BME280;1571;52.524;14.104;2023-04-23T02:25:15;100145.50;;;11.44;73.07
3122;BME280;1571;52.524;14.104;2023-04-23T02:27:44;100145.84;;;11.39;73.32
3122;BME280;1571;52.524;14.104;2023-04-23T02:30:12;100145.72;;;11.41;73.89
3122;BME280;1571;52.524;14.104;2023-04-23T02:32:41;100143.41;;;11.36;74.35
3122;BME280;1571;52.524;14.104;2023-04-23T02:35:11;100146.25;;;11.46;74.40
3122;BME280;1571;52.524;14.104;2023-04-23T02:37:39;100148.63;;;11.38;74.30
3122;BME280;1571;52.524;14.104;2023-04-23T02:40:09;100135.94;;;11.41;73.75
3122;BME280;1571;52.524;14.104;2023-04-23T02:42:37;100139.56;;;11.40;74.79
3122;BME280;1571;52.524;14.104;2023-04-23T02:45:09;100144.88;;;11.40;75.62
3122;BME280;1571;52.524;14.104;2023-04-23T02:47:38;100135.69;;;11.33;77.05
3122;BME280;1571;52.524;14.104;2023-04-23T02:50:06;100131.50;;;11.18;78.11
3122;BME280;1571;52.524;14.104;2023-04-23T02:52:36;100136.88;;;11.29;78.28
3122;BME280;1571;52.524;14.104;2023-04-23T02:55:05;100133.81;;;11.22;78.19
3122;BME280;1571;52.524;14.104;2023-04-23T02:57:35;100129.63;;;11.31;77.68
3122;BME280;1571;52.524;14.104;2023-04-23T03:00:04;100123.59;;;11.29;76.18
3122;BME280;1571;52.524;14.104;2023-04-23T03:02:39;100118.00;;;11.21;75.96
3122;BME280;1571;52.524;14.104;2023-04-23T03:05:08;100116.91;;;11.23;76.20
3122;BME280;1571;52.524;14.104;2023-04-23T03:07:38;100113.78;;;11.30;76.96
3122;BME280;1571;52.524;14.104;2023-04-23T03:10:07;100111.00;;;11.20;76.71
3122;BME280;1571;52.524;14.104;2023-04-23T03:12:35;100119.69;;;11.22;76.59
3122;BME280;1571;52.524;14.104;2023-04-23T03:15:05;100117.75;;;11.13;77.35
3122;BME280;1571;52.524;14.104;2023-04-23T03:17:36;100109.81;;;11.24;78.18
3122;BME280;1571;52.524;14.104;2023-04-23T03:20:07;100110.22;;;11.07;78.97
3122;BME280;1571;52.524;14.104;2023-04-23T03:22:39;100113.59;;;11.09;79.84
3122;BME280;1571;52.524;14.104;2023-04-23T03:25:08;100120.06;;;10.93;79.25
3122;BME280;1571;52.524;14.104;2023-04-23T03:27:38;100097.44;;;11.12;79.61
3122;BME280;1571;52.524;14.104;2023-04-23T03:30:07;100106.75;;;11.17;79.36
3122;BME280;1571;52.524;14.104;2023-04-23T03:32:37;100105.19;;;11.15;79.29
3122;BME280;1571;52.524;14.104;2023-04-23T03:35:06;100097.44;;;11.12;78.03
3122;BME280;1571;52.524;14.104;2023-04-23T03:37:39;100092.13;;;11.12;76.87
3122;BME280;1571;52.524;14.104;2023-04-23T03:40:08;100093.59;;;11.16;76.79
3122;BME280;1571;52.524;14.104;2023-04-23T03:42:39;100096.72;;;11.21;76.36
3122;BME280;1571;52.524;14.104;2023-04-23T03:45:09;100093.47;;;11.17;76.70
3122;BME280;1571;52.524;14.104;2023-04-23T03:47:39;100097.22;;;11.15;77.33
3122;BME280;1571;52.524;14.104;2023-04-23T03:50:09;100084.88;;;11.14;77.48
3122;BME280;1571;52.524;14.104;2023-04-23T03:52:41;100085.81;;;11.01;78.19
3122;BME280;1571;52.524;14.104;2023-04-23T03:55:15;100085.22;;;11.09;78.29
3122;BME280;1571;52.524;14.104;2023-04-23T03:57:46;100090.97;;;11.27;79.11
3122;BME280;1571;52.524;14.104;2023-04-23T04:00:24;100093.59;;;11.16;78.18
3122;BME280;1571;52.524;14.104;2023-04-23T04:02:52;100094.16;;;11.08;78.47
3122;BME280;1571;52.524;14.104;2023-04-23T04:05:22;100092.44;;;11.31;77.76
3122;BME280;1571;52.524;14.104;2023-04-23T04:07:54;100096.56;;;11.35;77.16
3122;BME280;1571;52.524;14.104;2023-04-23T04:10:24;100096.28;;;11.27;76.40
3122;BME280;1571;52.524;14.104;2023-04-23T04:12:52;100100.31;;;11.33;76.30
3122;BME280;1571;52.524;14.104;2023-04-23T04:15:21;100106.66;;;11.30;76.37
3122;BME280;1571;52.524;14.104;2023-04-23T04:17:50;100113.38;;;11.47;76.94
3122;BME280;1571;52.524;14.104;2023-04-23T04:20:18;100105.28;;;11.49;76.70
3122;BME280;1571;52.524;14.104;2023-04-23T04:22:46;100111.69;;;11.46;77.07
3122;BME280;1571;52.524;14.104;2023-04-23T04:25:16;100114.44;;;11.33;78.02
3122;BME280;1571;52.524;14.104;2023-04-23T04:27:44;100112.53;;;11.46;78.31
3122;BME280;1571;52.524;14.104;2023-04-23T04:30:13;100109.34;;;11.41;78.28
3122;BME280;1571;52.524;14.104;2023-04-23T04:32:41;100100.50;;;11.30;78.28
3122;BME280;1571;52.524;14.104;2023-04-23T04:35:11;100105.75;;;11.42;77.81
3122;BME280;1571;52.524;14.104;2023-04-23T04:37:40;100115.22;;;11.58;79.41
3122;BME280;1571;52.524;14.104;2023-04-23T04:40:10;100106.28;;;11.70;78.84
3122;BME280;1571;52.524;14.104;2023-04-23T04:42:42;100109.19;;;11.67;78.91
3122;BME280;1571;52.524;14.104;2023-04-23T04:45:12;100108.56;;;11.63;79.42
3122;BME280;1571;52.524;14.104;2023-04-23T04:47:40;100105.06;;;11.52;79.92
3122;BME280;1571;52.524;14.104;2023-04-23T04:50:09;100106.72;;;11.53;80.30
3122;BME280;1571;52.524;14.104;2023-04-23T04:52:38;100109.69;;;11.72;80.38
3122;BME280;1571;52.524;14.104;2023-04-23T04:55:07;100108.53;;;11.99;80.72
3122;BME280;1571;52.524;14.104;2023-04-23T04:57:35;100112.41;;;11.95;81.14
3122;BME280;1571;52.524;14.104;2023-04-23T05:00:20;100110.47;;;11.97;81.65
3122;BME280;1571;52.524;14.104;2023-04-23T05:02:49;100113.84;;;11.99;80.28
3122;BME280;1571;52.524;14.104;2023-04-23T05:05:18;100104.16;;;12.09;78.89
3122;BME280;1571;52.524;14.104;2023-04-23T05:07:46;100101.50;;;12.20;78.01
3122;BME280;1571;52.524;14.104;2023-04-23T05:10:14;100098.88;;;12.32;77.18
3122;BME280;1571;52.524;14.104;2023-04-23T05:12:43;100108.78;;;12.29;77.03
3122;BME280;1571;52.524;14.104;2023-04-23T05:15:12;100106.50;;;12.25;76.89
3122;BME280;1571;52.524;14.104;2023-04-23T05:17:42;100102.72;;;12.27;76.98
3122;BME280;1571;52.524;14.104;2023-04-23T05:20:11;100102.47;;;12.31;76.99
3122;BME280;1571;52.524;14.104;2023-04-23T05:22:41;100103.69;;;12.38;76.92
3122;BME280;1571;52.524;14.104;2023-04-23T05:25:10;100109.50;;;12.43;76.59
3122;BME280;1571;52.524;14.104;2023-04-23T05:27:39;100104.16;;;12.54;76.86
3122;BME280;1571;52.524;14.104;2023-04-23T05:30:08;100106.75;;;12.77;76.57
3122;BME280;1571;52.524;14.104;2023-04-23T05:32:37;100109.25;;;12.89;75.99
3122;BME280;1571;52.524;14.104;2023-04-23T05:35:08;100090.72;;;12.99;75.28
3122;BME280;1571;52.524;14.104;2023-04-23T05:37:36;100105.56;;;13.13;75.03
3122;BME280;1571;52.524;14.104;2023-04-23T05:40:05;100096.75;;;13.33;74.43
3122;BME280;1571;52.524;14.104;2023-04-23T05:42:34;100102.81;;;13.57;75.15
3122;BME280;1571;52.524;14.104;2023-04-23T05:45:03;100094.22;;;13.74;73.83
3122;BME280;1571;52.524;14.104;2023-04-23T05:47:35;100097.13;;;14.32;72.45
3122;BME280;1571;52.524;14.104;2023-04-23T05:50:04;100094.03;;;14.77;71.06
3122;BME280;1571;52.524;14.104;2023-04-23T05:52:34;100092.38;;;14.96;69.79
3122;BME280;1571;52.524;14.104;2023-04-23T05:55:04;100089.69;;;14.86;69.67
3122;BME280;1571;52.524;14.104;2023-04-23T05:57:32;100091.69;;;15.13;68.58
3122;BME280;1571;52.524;14.104;2023-04-23T06:00:01;100090.69;;;15.05;68.74
3122;BME280;1571;52.524;14.104;2023-04-23T06:02:38;100107.53;;;14.86;69.31
3122;BME280;1571;52.524;14.104;2023-04-23T06:05:07;100110.38;;;14.84;68.28
3122;BME280;1571;52.524;14.104;2023-04-23T06:07:37;100112.59;;;14.69;68.61
3122;BME280;1571;52.524;14.104;2023-04-23T06:10:06;100104.44;;;14.81;68.20
3122;BME280;1571;52.524;14.104;2023-04-23T06:12:35;100113.13;;;14.63;68.40
3122;BME280;1571;52.524;14.104;2023-04-23T06:15:06;100112.59;;;14.79;68.72
3122;BME280;1571;52.524;14.104;2023-04-23T06:17:35;100108.41;;;14.86;67.35
3122;BME280;1571;52.524;14.104;2023-04-23T06:20:04;100100.22;;;14.88;67.22
3122;BME280;1571;52.524;14.104;2023-04-23T06:22:33;100103.75;;;14.98;67.07
3122;BME280;1571;52.524;14.104;2023-04-23T06:25:04;100105.59;;;14.97;67.47
3122;BME280;1571;52.524;14.104;2023-04-23T06:27:32;100100.38;;;14.96;67.81
3122;BME280;1571;52.524;14.104;2023-04-23T06:30:07;100104.72;;;14.97;67.87
3122;BME280;1571;52.524;14.104;2023-04-23T06:32:36;100091.78;;;15.22;67.15
3122;BME280;1571;52.524;14.104;2023-04-23T06:35:05;100088.41;;;15.39;66.08
3122;BME280;1571;52.524;14.104;2023-04-23T06:37:34;100099.97;;;15.30;67.07
3122;BME280;1571;52.524;14.104;2023-04-23T06:40:05;100104.06;;;15.34;67.18
3122;BME280;1571;52.524;14.104;2023-04-23T06:42:33;100096.59;;;15.28;67.51
3122;BME280;1571;52.524;14.104;2023-04-23T06:45:18;100095.69;;;15.66;67.04
3122;BME280;1571;52.524;14.104;2023-04-23T06:47:47;100090.97;;;15.97;66.26
3122;BME280;1571;52.524;14.104;2023-04-23T06:50:16;100091.06;;;15.49;67.21
3122;BME280;1571;52.524;14.104;2023-04-23T06:52:44;100090.84;;;15.89;66.90
3122;BME280;1571;52.524;14.104;2023-04-23T06:55:13;100088.31;;;15.97;67.28
3122;BME280;1571;52.524;14.104;2023-04-23T06:57:41;100087.38;;;16.16;67.47
3122;BME280;1571;52.524;14.104;2023-04-23T07:00:11;100077.47;;;16.72;66.78
3122;BME280;1571;52.524;14.104;2023-04-23T07:02:42;100076.31;;;16.75;65.62
3122;BME280;1571;52.524;14.104;2023-04-23T07:05:10;100077.31;;;16.56;65.59
3122;BME280;1571;52.524;14.104;2023-04-23T07:07:38;100082.84;;;16.72;65.98
3122;BME280;1571;52.524;14.104;2023-04-23T07:10:10;100085.91;;;16.77;65.90
3122;BME280;1571;52.524;14.104;2023-04-23T07:12:40;100082.06;;;16.62;66.02
3122;BME280;1571;52.524;14.104;2023-04-23T07:15:09;100086.91;;;16.76;66.23
3122;BME280;1571;52.524;14.104;2023-04-23T07:17:37;100085.03;;;16.87;66.62
3122;BME280;1571;52.524;14.104;2023-04-23T07:20:07;100094.22;;;16.56;67.69
3122;BME280;1571;52.524;14.104;2023-04-23T07:22:35;100089.00;;;16.55;68.12
3122;BME280;1571;52.524;14.104;2023-04-23T07:25:04;100091.47;;;16.66;68.12
3122;BME280;1571;52.524;14.104;2023-04-23T07:27:34;100089.72;;;16.84;67.43
3122;BME280;1571;52.524;14.104;2023-04-23T07:30:05;100086.63;;;16.79;67.20
3122;BME280;1571;52.524;14.104;2023-04-23T07:32:34;100090.91;;;16.44;68.19
3122;BME280;1571;52.524;14.104;2023-04-23T07:35:02;100090.91;;;16.44;69.74
3122;BME280;1571;52.524;14.104;2023-04-23T07:37:31;100105.06;;;16.55;69.86
3122;BME280;1571;52.524;14.104;2023-04-23T07:39:59;100102.06;;;16.68;69.16
3122;BME280;1571;52.524;14.104;2023-04-23T07:42:28;100103.72;;;16.51;68.84
3122;BME280;1571;52.524;14.104;2023-04-23T07:44:56;100106.59;;;16.39;69.60
3122;BME280;1571;52.524;14.104;2023-04-23T07:47:26;100109.09;;;16.13;70.33
3122;BME280;1571;52.524;14.104;2023-04-23T07:49:54;100110.13;;;16.02;70.41
3122;BME280;1571;52.524;14.104;2023-04-23T07:52:22;100111.25;;;16.00;71.75
3122;BME280;1571;52.524;14.104;2023-04-23T07:54:50;100114.50;;;16.03;71.94
3122;BME280;1571;52.524;14.104;2023-04-23T07:57:18;100112.78;;;16.02;71.91
3122;BME280;1571;52.524;14.104;2023-04-23T07:59:47;100115.91;;;16.08;71.89
3122;BME280;1571;52.524;14.104;2023-04-23T08:02:15;100121.88;;;15.82;73.27
3122;BME280;1571;52.524;14.104;2023-04-23T08:04:50;100125.22;;;16.03;72.82
3122;BME280;1571;52.524;14.104;2023-04-23T08:07:19;100120.59;;;15.86;73.48
3122;BME280;1571;52.524;14.104;2023-04-23T08:09:47;100123.28;;;15.86;73.91
3122;BME280;1571;52.524;14.104;2023-04-23T08:12:15;100130.03;;;15.90;73.79
3122;BME280;1571;52.524;14.104;2023-04-23T08:14:43;100128.38;;;15.79;74.52
3122;BME280;1571;52.524;14.104;2023-04-23T08:17:16;100129.09;;;15.72;75.01
3122;BME280;1571;52.524;14.104;2023-04-23T08:19:44;100133.03;;;15.48;76.85
3122;BME280;1571;52.524;14.104;2023-04-23T08:22:13;100137.09;;;15.52;77.00
3122;BME280;1571;52.524;14.104;2023-04-23T08:24:42;100138.50;;;15.76;77.00
3122;BME280;1571;52.524;14.104;2023-04-23T08:27:10;100134.84;;;15.77;77.11
3122;BME280;1571;52.524;14.104;2023-04-23T08:29:39;100140.19;;;15.77;77.81
3122;BME280;1571;52.524;14.104;2023-04-23T08:32:08;100141.59;;;15.61;78.86
3122;BME280;1571;52.524;14.104;2023-04-23T08:34:36;100139.63;;;15.73;78.58
3122;BME280;1571;52.524;14.104;2023-04-23T08:37:05;100147.53;;;15.75;78.79
3122;BME280;1571;52.524;14.104;2023-04-23T08:39:43;100147.22;;;15.78;78.75
3122;BME280;1571;52.524;14.104;2023-04-23T08:42:21;100147.50;;;15.85;79.00
3122;BME280;1571;52.524;14.104;2023-04-23T08:44:52;100154.41;;;15.87;79.36
3122;BME280;1571;52.524;14.104;2023-04-23T08:47:23;100151.44;;;15.90;79.21
3122;BME280;1571;52.524;14.104;2023-04-23T08:49:53;100151.72;;;15.97;79.56
3122;BME280;1571;52.524;14.104;2023-04-23T08:52:23;100155.91;;;16.09;79.65
3122;BME280;1571;52.524;14.104;2023-04-23T08:54:57;100153.13;;;16.01;79.25
3122;BME280;1571;52.524;14.104;2023-04-23T08:57:26;100155.53;;;15.94;79.33
3122;BME280;1571;52.524;14.104;2023-04-23T08:59:55;100162.97;;;16.00;80.23
3122;BME280;1571;52.524;14.104;2023-04-23T09:02:23;100163.81;;;15.91;79.95
3122;BME280;1571;52.524;14.104;2023-04-23T09:04:52;100155.69;;;15.83;80.17
3122;BME280;1571;52.524;14.104;2023-04-23T09:07:22;100154.56;;;15.86;80.40
3122;BME280;1571;52.524;14.104;2023-04-23T09:09:50;100161.63;;;15.77;81.25
3122;BME280;1571;52.524;14.104;2023-04-23T09:12:20;100166.25;;;15.55;82.61
3122;BME280;1571;52.524;14.104;2023-04-23T09:14:48;100175.41;;;15.53;83.90
3122;BME280;1571;52.524;14.104;2023-04-23T09:17:18;100170.63;;;15.37;85.07
3122;BME280;1571;52.524;14.104;2023-04-23T09:19:46;100177.38;;;15.41;86.35
3122;BME280;1571;52.524;14.104;2023-04-23T09:22:14;100164.84;;;15.22;88.17
3122;BME280;1571;52.524;14.104;2023-04-23T09:24:43;100171.31;;;15.10;89.07
3122;BME280;1571;52.524;14.104;2023-04-23T09:27:11;100166.50;;;15.04;90.32
3122;BME280;1571;52.524;14.104;2023-04-23T09:29:43;100163.53;;;14.87;91.42
3122;BME280;1571;52.524;14.104;2023-04-23T09:32:11;100166.63;;;14.83;92.58
3122;BME280;1571;52.524;14.104;2023-04-23T09:34:39;100163.09;;;14.82;93.82
3122;BME280;1571;52.524;14.104;2023-04-23T09:37:08;100153.50;;;14.70;95.34
3122;BME280;1571;52.524;14.104;2023-04-23T09:39:38;100162.22;;;14.72;96.60
3122;BME280;1571;52.524;14.104;2023-04-23T09:42:06;100157.88;;;14.71;96.86
3122;BME280;1571;52.524;14.104;2023-04-23T09:44:37;100161.19;;;14.63;96.89
3122;BME280;1571;52.524;14.104;2023-04-23T09:47:07;100160.38;;;14.72;97.25
3122;BME280;1571;52.524;14.104;2023-04-23T09:49:44;100152.84;;;14.87;96.86
3122;BME280;1571;52.524;14.104;2023-04-23T09:52:13;100145.81;;;15.06;96.61
3122;BME280;1571;52.524;14.104;2023-04-23T09:54:42;100142.16;;;14.97;95.72
3122;BME280;1571;52.524;14.104;2023-04-23T09:57:12;100137.97;;;15.43;95.93
3122;BME280;1571;52.524;14.104;2023-04-23T09:59:40;100146.13;;;15.71;94.34
3122;BME280;1571;52.524;14.104;2023-04-23T10:02:18;100130.22;;;16.16;93.75
3122;BME280;1571;52.524;14.104;2023-04-23T10:04:50;100132.38;;;16.40;92.45
3122;BME280;1571;52.524;14.104;2023-04-23T10:07:33;100141.31;;;16.31;89.19
3122;BME280;1571;52.524;14.104;2023-04-23T10:10:02;100138.38;;;16.24;87.87
3122;BME280;1571;52.524;14.104;2023-04-23T10:12:30;100142.19;;;16.22;88.31
3122;BME280;1571;52.524;14.104;2023-04-23T10:15:19;100142.59;;;16.27;88.08
3122;BME280;1571;52.524;14.104;2023-04-23T10:17:49;100131.22;;;16.43;87.06
3122;BME280;1571;52.524;14.104;2023-04-23T10:20:20;100133.47;;;16.48;86.85
3122;BME280;1571;52.524;14.104;2023-04-23T10:22:52;100130.78;;;16.48;86.23
3122;BME280;1571;52.524;14.104;2023-04-23T10:25:21;100132.78;;;16.73;85.45
3122;BME280;1571;52.524;14.104;2023-04-23T10:27:52;100134.88;;;16.79;85.56
3122;BME280;1571;52.524;14.104;2023-04-23T10:30:22;100136.88;;;16.95;84.13
3122;BME280;1571;52.524;14.104;2023-04-23T10:32:52;100135.66;;;16.90;84.05
3122;BME280;1571;52.524;14.104;2023-04-23T10:35:22;100128.22;;;17.55;82.55
3122;BME280;1571;52.524;14.104;2023-04-23T10:37:50;100122.59;;;17.66;80.92
3122;BME280;1571;52.524;14.104;2023-04-23T10:40:23;100132.63;;;17.02;80.92
3122;BME280;1571;52.524;14.104;2023-04-23T10:42:54;100129.00;;;16.66;81.55
3122;BME280;1571;52.524;14.104;2023-04-23T10:45:23;100130.97;;;16.36;81.92
3122;BME280;1571;52.524;14.104;2023-04-23T10:47:53;100131.38;;;16.69;82.21
3122;BME280;1571;52.524;14.104;2023-04-23T10:50:24;100132.22;;;16.97;81.68
3122;BME280;1571;52.524;14.104;2023-04-23T10:52:53;100129.31;;;17.09;79.96
3122;BME280;1571;52.524;14.104;2023-04-23T10:55:25;100133.75;;;17.00;80.34
3122;BME280;1571;52.524;14.104;2023-04-23T10:57:54;100131.22;;;16.53;81.24
3122;BME280;1571;52.524;14.104;2023-04-23T11:00:27;100143.16;;;16.31;82.66
3122;BME280;1571;52.524;14.104;2023-04-23T11:02:57;100150.88;;;15.87;84.88
3122;BME280;1571;52.524;14.104;2023-04-23T11:05:26;100148.91;;;15.69;86.43
3122;BME280;1571;52.524;14.104;2023-04-23T11:08:04;100170.34;;;15.20;91.30
3122;BME280;1571;52.524;14.104;2023-04-23T11:10:53;100166.00;;;14.60;96.87
3122;BME280;1571;52.524;14.104;2023-04-23T11:13:23;100183.53;;;14.31;100.00
3122;BME280;1571;52.524;14.104;2023-04-23T11:16:11;100188.25;;;14.18;100.00
3122;BME280;1571;52.524;14.104;2023-04-23T11:18:57;100188.88;;;14.01;100.00
3122;BME280;1571;52.524;14.104;2023-04-23T11:21:59;100194.38;;;14.09;100.00
3122;BME280;1571;52.524;14.104;2023-04-23T11:24:30;100196.94;;;13.89;100.00
3122;BME280;1571;52.524;14.104;2023-04-23T11:26:59;100195.19;;;14.00;100.00
3122;BME280;1571;52.524;14.104;2023-04-23T11:29:28;100190.34;;;13.93;100.00
3122;BME280;1571;52.524;14.104;2023-04-23T11:31:56;100196.88;;;14.01;100.00
3122;BME280;1571;52.524;14.104;2023-04-23T11:34:31;100192.19;;;14.14;100.00
3122;BME280;1571;52.524;14.104;2023-04-23T11:37:01;100193.09;;;14.03;100.00
3122;BME280;1571;52.524;14.104;2023-04-23T11:39:31;100200.06;;;14.46;100.00
3122;BME280;1571;52.524;14.104;2023-04-23T11:41:59;100190.66;;;14.83;100.00
3122;BME280;1571;52.524;14.104;2023-04-23T11:44:29;100184.13;;;15.26;100.00
3122;BME280;1571;52.524;14.104;2023-04-23T11:47:00;100181.31;;;15.47;100.00
3122;BME280;1571;52.524;14.104;2023-04-23T11:49:30;100167.66;;;15.59;100.00
3122;BME280;1571;52.524;14.104;2023-04-23T11:51:59;100167.53;;;15.61;100.00
3122;BME280;1571;52.524;14.104;2023-04-23T11:54:28;100163.28;;;15.78;100.00
3122;BME280;1571;52.524;14.104;2023-04-23T11:56:56;100169.22;;;15.52;98.25
3122;BME280;1571;52.524;14.104;2023-04-23T11:59:26;100168.34;;;15.61;98.85
3122;BME280;1571;52.524;14.104;2023-04-23T12:01:56;100171.75;;;15.73;97.29
3122;BME280;1571;52.524;14.104;2023-04-23T12:04:26;100176.78;;;15.96;98.86
3122;BME280;1571;52.524;14.104;2023-04-23T12:06:57;100187.38;;;15.78;97.39
3122;BME280;1571;52.524;14.104;2023-04-23T12:09:27;100193.16;;;15.64;97.89
3122;BME280;1571;52.524;14.104;2023-04-23T12:11:56;100196.69;;;15.45;98.83
3122;BME280;1571;52.524;14.104;2023-04-23T12:14:26;100198.09;;;15.58;98.91
3122;BME280;1571;52.524;14.104;2023-04-23T12:16:56;100198.75;;;15.51;98.68
3122;BME280;1571;52.524;14.104;2023-04-23T12:19:27;100197.66;;;15.63;99.90
3122;BME280;1571;52.524;14.104;2023-04-23T12:21:57;100190.31;;;15.94;96.45
3122;BME280;1571;52.524;14.104;2023-04-23T12:24:27;100188.75;;;16.01;94.43
3122;BME280;1571;52.524;14.104;2023-04-23T12:26:57;100188.88;;;16.47;94.53
3122;BME280;1571;52.524;14.104;2023-04-23T12:29:29;100191.66;;;16.93;93.00
3122;BME280;1571;52.524;14.104;2023-04-23T12:31:58;100181.56;;;16.49;90.21
3122;BME280;1571;52.524;14.104;2023-04-23T12:34:27;100176.72;;;16.90;89.96
3122;BME280;1571;52.524;14.104;2023-04-23T12:36:56;100171.59;;;17.68;85.51
3122;BME280;1571;52.524;14.104;2023-04-23T12:39:26;100181.75;;;17.39;85.17
3122;BME280;1571;52.524;14.104;2023-04-23T12:41:57;100180.16;;;16.73;88.03
3122;BME280;1571;52.524;14.104;2023-04-23T12:44:28;100179.19;;;17.01;86.95
3122;BME280;1571;52.524;14.104;2023-04-23T12:46:58;100171.69;;;17.05;83.05
3122;BME280;1571;52.524;14.104;2023-04-23T12:49:27;100176.63;;;16.72;83.04
3122;BME280;1571;52.524;14.104;2023-04-23T12:51:58;100175.19;;;16.88;81.74
3122;BME280;1571;52.524;14.104;2023-04-23T12:54:28;100178.09;;;16.94;81.15
3122;BME280;1571;52.524;14.104;2023-04-23T12:56:57;100195.41;;;16.72;82.52
3122;BME280;1571;52.524;14.104;2023-04-23T12:59:26;100200.19;;;16.78;83.48
3122;BME280;1571;52.524;14.104;2023-04-23T13:01:54;100199.34;;;16.78;81.12
3122;BME280;1571;52.524;14.104;2023-04-23T13:04:22;100202.03;;;16.40;81.67
3122;BME280;1571;52.524;14.104;2023-04-23T13:06:50;100192.06;;;16.23;80.87
3122;BME280;1571;52.524;14.104;2023-04-23T13:09:20;100212.75;;;15.74;83.21
3122;BME280;1571;52.524;14.104;2023-04-23T13:11:53;100191.44;;;16.01;82.63
3122;BME280;1571;52.524;14.104;2023-04-23T13:14:21;100205.34;;;16.15;82.34
3122;BME280;1571;52.524;14.104;2023-04-23T13:16:49;100203.91;;;16.30;81.90
3122;BME280;1571;52.524;14.104;2023-04-23T13:19:18;100209.44;;;16.19;83.69